Time;durP1;ratioP1;P1;durP2;ratioP2;P2;SDS_P1;SDS_P2;PMS_P1;PMS_P2;Temp;Humidity;BMP_temperature;BMP_pressure;BME280_temperature;BME280_humidity;BME280_pressure;Samples;Min_cycle;Max_cycle;Signal;HPM_P1;HPM_P2
2021/09/17 00:01:15;;;;;;;;;;;;;;;-142.75;100.00;76956.13;4991762;28;19917;-76
2021/09/17 00:03:41;;;;;;;;;;;;;;;-142.75;100.00;76954.16;4991766;28;20577;-76
2021/09/17 00:06:06;;;;;;;;;;;;;;;-142.75;100.00;76958.09;4992060;28;19929;-76
2021/09/17 00:08:31;;;;;;;;;;;;;;;-142.75;100.00;76956.13;4990701;28;19972;-76
2021/09/17 00:10:56;;;;;;;;;;;;;;;-142.75;100.00;76952.19;4991543;28;19937;-76
2021/09/17 00:13:22;;;;;;;;;;;;;;;-142.75;100.00;76960.06;4992777;28;20405;-76
2021/09/17 00:15:47;;;;;;;;;;;;;;;-142.75;100.00;76958.09;5007437;28;19917;-76
2021/09/17 00:18:12;;;;;;;;;;;;;;;-142.75;100.00;76944.31;5011324;28;19921;-76
2021/09/17 00:20:38;;;;;;;;;;;;;;;-142.75;100.00;76938.41;5009192;28;19944;-76
2021/09/17 00:23:03;;;;;;;;;;;;;;;-142.75;100.00;76932.50;4991076;28;19924;-76
2021/09/17 00:25:28;;;;;;;;;;;;;;;-142.75;100.00;76938.41;4991103;28;19968;-77
2021/09/17 00:27:53;;;;;;;;;;;;;;;-142.75;100.00;76922.66;4992247;28;20395;-76
2021/09/17 00:30:19;;;;;;;;;;;;;;;-142.75;100.00;76920.69;4991723;28;19913;-76
2021/09/17 00:32:45;;;;;;;;;;;;;;;-142.75;100.00;76914.78;4992274;28;20295;-76
2021/09/17 00:35:10;;;;;;;;;;;;;;;-142.75;100.00;76916.75;4990972;28;19914;-76
2021/09/17 00:37:36;;;;;;;;;;;;;;;-142.75;100.00;76916.75;4992091;28;20499;-76
2021/09/17 00:40:02;;;;;;;;;;;;;;;-142.75;100.00;76901.00;5006772;28;19922;-76
2021/09/17 00:42:27;;;;;;;;;;;;;;;-142.75;100.00;76901.00;5010656;28;19972;-77
2021/09/17 00:44:52;;;;;;;;;;;;;;;-142.75;100.00;76901.00;5011406;28;19946;-76
2021/09/17 00:47:17;;;;;;;;;;;;;;;-142.75;100.00;76897.06;5010002;28;19913;-76
2021/09/17 00:49:42;;;;;;;;;;;;;;;-142.75;100.00;76895.09;5010364;28;19914;-76
2021/09/17 00:52:08;;;;;;;;;;;;;;;-142.75;100.00;76885.25;5010993;28;19913;-77
2021/09/17 00:54:34;;;;;;;;;;;;;;;-142.75;100.00;76887.22;5010206;28;19921;-76
2021/09/17 00:57:00;;;;;;;;;;;;;;;-142.75;100.00;76877.38;5011163;28;19975;-76
2021/09/17 00:59:25;;;;;;;;;;;;;;;-142.75;100.00;76875.41;5009941;28;19917;-76
2021/09/17 01:01:50;;;;;;;;;;;;;;;-142.75;100.00;76873.44;5009400;28;19960;-76
2021/09/17 01:04:15;;;;;;;;;;;;;;;-142.75;100.00;76873.44;5011086;28;20279;-76
2021/09/17 01:06:43;;;;;;;;;;;;;;;-142.75;100.00;76865.56;5009504;28;19914;-76
2021/09/17 01:09:08;;;;;;;;;;;;;;;-142.75;100.00;76865.56;5011132;28;19920;-76
2021/09/17 01:11:33;;;;;;;;;;;;;;;-142.75;100.00;76867.53;5010781;28;20375;-76
2021/09/17 01:14:00;;;;;;;;;;;;;;;-142.75;100.00;76859.66;5010429;28;19964;-76
2021/09/17 01:16:25;;;;;;;;;;;;;;;-142.75;100.00;76857.69;5010688;28;19917;-76
2021/09/17 01:18:51;;;;;;;;;;;;;;;-142.75;100.00;76857.69;5010619;28;20302;-76
2021/09/17 01:21:16;;;;;;;;;;;;;;;-142.75;100.00;76853.75;5010388;28;19921;-76
2021/09/17 01:23:41;;;;;;;;;;;;;;;-142.75;100.00;76867.53;5009501;28;19925;-76
2021/09/17 01:26:06;;;;;;;;;;;;;;;-142.75;100.00;76853.75;5010825;28;19913;-76
2021/09/17 01:28:32;;;;;;;;;;;;;;;-142.75;100.00;76838.00;5010676;28;19917;-76
2021/09/17 01:30:58;;;;;;;;;;;;;;;-142.75;100.00;76834.06;5010221;28;20500;-75
2021/09/17 01:33:24;;;;;;;;;;;;;;;-142.75;100.00;76847.84;5006062;28;19914;-76
2021/09/17 01:36:01;;;;;;;;;;;;;;;-142.75;100.00;76853.75;4990510;28;19914;-76
2021/09/17 01:38:27;;;;;;;;;;;;;;;-142.75;100.00;76851.78;5007084;28;20007;-76
2021/09/17 01:40:53;;;;;;;;;;;;;;;-142.75;100.00;76845.88;5010174;28;19924;-76
2021/09/17 01:43:18;;;;;;;;;;;;;;;-142.75;100.00;76853.75;5009497;28;19918;-76
2021/09/17 01:45:43;;;;;;;;;;;;;;;-142.75;100.00;76857.69;5009124;28;19913;-76
2021/09/17 01:48:08;;;;;;;;;;;;;;;-142.75;100.00;76845.88;5008886;28;19914;-76
2021/09/17 01:50:34;;;;;;;;;;;;;;;-142.75;100.00;76857.69;5008657;28;19919;-76
2021/09/17 01:52:59;;;;;;;;;;;;;;;-142.75;100.00;76851.78;5010107;28;19966;-77
2021/09/17 01:55:24;;;;;;;;;;;;;;;-142.75;100.00;76843.91;4999468;28;19913;-76
2021/09/17 01:57:50;;;;;;;;;;;;;;;-142.75;100.00;76849.81;4990516;28;19914;-75
2021/09/17 02:00:16;;;;;;;;;;;;;;;-142.75;100.00;76845.88;4990343;28;20015;-76
2021/09/17 02:02:41;;;;;;;;;;;;;;;-142.75;100.00;76839.97;4990520;28;20431;-77
2021/09/17 02:05:06;;;;;;;;;;;;;;;-142.75;100.00;76838.00;4990578;28;19996;-76
2021/09/17 02:07:32;;;;;;;;;;;;;;;-142.75;100.00;76830.13;4990401;28;19925;-77
2021/09/17 02:09:57;;;;;;;;;;;;;;;-142.75;100.00;76834.06;4989987;28;20025;-76
2021/09/17 02:12:22;;;;;;;;;;;;;;;-142.75;100.00;76849.81;4991014;28;20392;-77
2021/09/17 02:14:47;;;;;;;;;;;;;;;-142.75;100.00;76838.00;5000617;28;20002;-76
2021/09/17 02:17:12;;;;;;;;;;;;;;;-142.75;100.00;76853.75;5009801;28;19924;-77
2021/09/17 02:19:37;;;;;;;;;;;;;;;-142.75;100.00;76845.88;5005628;28;19923;-76
2021/09/17 02:22:03;;;;;;;;;;;;;;;-142.75;100.00;76849.81;4993834;28;19917;-77
2021/09/17 02:24:28;;;;;;;;;;;;;;;-142.75;100.00;76836.03;5008414;28;19996;-76
2021/09/17 02:26:53;;;;;;;;;;;;;;;-142.75;100.00;76836.03;5008307;28;19914;-76
2021/09/17 02:29:18;;;;;;;;;;;;;;;-142.75;100.00;76824.22;5009538;28;19917;-76
2021/09/17 02:31:44;;;;;;;;;;;;;;;-142.75;100.00;76814.38;5009379;28;20299;-76
2021/09/17 02:34:09;;;;;;;;;;;;;;;-142.75;100.00;76818.31;5009645;28;19920;-76
2021/09/17 02:36:34;;;;;;;;;;;;;;;-142.75;100.00;76810.44;5009451;28;19928;-76
2021/09/17 02:38:59;;;;;;;;;;;;;;;-142.75;100.00;76796.69;5005537;28;20021;-76
2021/09/17 02:41:25;;;;;;;;;;;;;;;-142.75;100.00;76808.50;4996598;28;20433;-76
2021/09/17 02:43:50;;;;;;;;;;;;;;;-142.75;100.00;76828.16;4989301;28;19914;-78
2021/09/17 02:46:15;;;;;;;;;;;;;;;-142.75;100.00;76820.28;4989960;28;19953;-76
2021/09/17 02:48:43;;;;;;;;;;;;;;;-142.75;100.00;76826.19;4989929;28;19952;-76
2021/09/17 02:51:08;;;;;;;;;;;;;;;-142.75;100.00;76816.34;4993720;28;19921;-76
2021/09/17 02:53:33;;;;;;;;;;;;;;;-142.75;100.00;76810.44;5008069;28;20021;-76
2021/09/17 02:55:58;;;;;;;;;;;;;;;-142.75;100.00;76798.66;5009518;28;19920;-76
2021/09/17 02:58:23;;;;;;;;;;;;;;;-142.75;100.00;76794.69;5007884;28;20398;-77
2021/09/17 03:00:48;;;;;;;;;;;;;;;-142.75;100.00;76786.84;5009179;28;19913;-76
2021/09/17 03:03:16;;;;;;;;;;;;;;;-142.75;100.00;76780.94;4999778;28;19925;-76
2021/09/17 03:05:41;;;;;;;;;;;;;;;-142.75;100.00;76786.84;4997988;28;20273;-76
2021/09/17 03:08:06;;;;;;;;;;;;;;;-142.75;100.00;76775.03;4988366;28;19921;-76
2021/09/17 03:10:32;;;;;;;;;;;;;;;-142.75;100.00;76767.16;4989455;28;19925;-76
2021/09/17 03:12:59;;;;;;;;;;;;;;;-142.75;100.00;76767.16;4990254;28;20008;-76
2021/09/17 03:15:24;;;;;;;;;;;;;;;-142.75;100.00;76777.00;4989651;28;19921;-76
2021/09/17 03:17:49;;;;;;;;;;;;;;;-142.75;100.00;76778.97;4989658;28;19913;-76
2021/09/17 03:20:14;;;;;;;;;;;;;;;-142.75;100.00;76780.94;4988119;28;20606;-76
2021/09/17 03:22:40;;;;;;;;;;;;;;;-142.75;100.00;76777.00;4994337;28;19917;-76
2021/09/17 03:25:05;;;;;;;;;;;;;;;-142.75;100.00;76784.88;5009351;28;19913;-76
2021/09/17 03:27:30;;;;;;;;;;;;;;;-142.75;100.00;76782.91;5008919;28;20295;-76
2021/09/17 03:29:56;;;;;;;;;;;;;;;-142.75;100.00;76771.09;4995080;28;20386;-76
2021/09/17 03:32:21;;;;;;;;;;;;;;;-142.75;100.00;76784.88;4989365;28;20403;-76
2021/09/17 03:34:46;;;;;;;;;;;;;;;-142.75;100.00;76790.78;4998104;28;19920;-76
2021/09/17 03:37:12;;;;;;;;;;;;;;;-142.75;100.00;76786.84;5008868;28;19975;-76
2021/09/17 03:39:37;;;;;;;;;;;;;;;-142.75;100.00;76800.63;5008905;28;19917;-77
2021/09/17 03:42:02;;;;;;;;;;;;;;;-142.75;100.00;76806.50;5007337;28;19928;-77
2021/09/17 03:44:27;;;;;;;;;;;;;;;-142.75;100.00;76790.78;5008119;28;20402;-76
2021/09/17 03:46:53;;;;;;;;;;;;;;;-142.75;100.00;76780.94;5007906;28;19935;-77
2021/09/17 03:49:19;;;;;;;;;;;;;;;-142.75;100.00;76794.69;5008976;28;19987;-77
2021/09/17 03:51:44;;;;;;;;;;;;;;;-142.75;100.00;76794.69;5008637;28;20410;-77
2021/09/17 03:54:09;;;;;;;;;;;;;;;-142.75;100.00;76806.50;5007190;28;19928;-76
2021/09/17 03:56:34;;;;;;;;;;;;;;;-142.75;100.00;76796.69;5006391;28;20067;-76
2021/09/17 03:58:59;;;;;;;;;;;;;;;-142.75;100.00;76782.91;4989585;28;20004;-76
2021/09/17 04:01:25;;;;;;;;;;;;;;;-142.75;100.00;76771.09;5006645;28;19933;-75
2021/09/17 04:03:50;;;;;;;;;;;;;;;-142.75;100.00;76775.03;4999470;28;19929;-76
2021/09/17 04:06:15;;;;;;;;;;;;;;;-142.75;100.00;76765.19;4991404;28;20387;-76
2021/09/17 04:08:40;;;;;;;;;;;;;;;-142.75;100.00;76759.28;4995061;28;19996;-76
2021/09/17 04:11:05;;;;;;;;;;;;;;;-142.75;100.00;76751.41;5010595;28;19913;-76
2021/09/17 04:13:31;;;;;;;;;;;;;;;-142.75;100.00;76739.59;5011355;28;19921;-76
2021/09/17 04:15:56;;;;;;;;;;;;;;;-142.75;100.00;76739.59;5012016;28;20005;-75
2021/09/17 04:18:21;;;;;;;;;;;;;;;-142.75;100.00;76739.59;5003393;28;19920;-75
2021/09/17 04:20:46;;;;;;;;;;;;;;;-142.75;100.00;76753.38;4990989;28;19920;-77
2021/09/17 04:23:11;;;;;;;;;;;;;;;-142.75;100.00;76759.28;4991188;28;20357;-76
2021/09/17 04:25:37;;;;;;;;;;;;;;;-142.75;100.00;76755.34;4992668;28;19977;-77
2021/09/17 04:28:02;;;;;;;;;;;;;;;-142.75;100.00;76771.09;4992286;28;20410;-76
2021/09/17 04:30:27;;;;;;;;;;;;;;;-142.75;100.00;76767.16;4991844;28;19910;-75
2021/09/17 04:32:52;;;;;;;;;;;;;;;-142.75;100.00;76747.47;4992290;28;19925;-76
2021/09/17 04:35:18;;;;;;;;;;;;;;;-142.75;100.00;76743.53;4991019;28;20307;-76
2021/09/17 04:37:44;;;;;;;;;;;;;;;-142.75;100.00;76741.56;4992187;28;19914;-76
2021/09/17 04:40:10;;;;;;;;;;;;;;;-142.75;100.00;76739.59;4991856;28;19921;-77
2021/09/17 04:42:36;;;;;;;;;;;;;;;-142.75;100.00;76743.53;4992223;28;20268;-76
2021/09/17 04:45:01;;;;;;;;;;;;;;;-142.75;100.00;76739.59;5002371;28;19921;-76
2021/09/17 04:47:26;;;;;;;;;;;;;;;-142.75;100.00;76743.53;5010131;28;19992;-76
2021/09/17 04:49:52;;;;;;;;;;;;;;;-142.75;100.00;76743.53;5011157;28;19917;-76
2021/09/17 04:52:17;;;;;;;;;;;;;;;-142.75;100.00;76751.41;5000680;28;19917;-76
2021/09/17 04:54:42;;;;;;;;;;;;;;;-142.75;100.00;76763.22;4991955;28;19922;-76
2021/09/17 04:57:07;;;;;;;;;;;;;;;-142.75;100.00;76761.25;4989619;28;19914;-76
2021/09/17 04:59:33;;;;;;;;;;;;;;;-142.75;100.00;76763.22;4991253;28;20375;-77
2021/09/17 05:01:58;;;;;;;;;;;;;;;-142.75;100.00;76759.28;4990808;28;19924;-76
2021/09/17 05:04:23;;;;;;;;;;;;;;;-142.75;100.00;76763.22;4989904;28;19920;-76
2021/09/17 05:06:48;;;;;;;;;;;;;;;-142.75;100.00;76757.31;5019493;22;19940;-79
2021/09/17 05:09:13;;;;;;;;;;;;;;;-142.75;100.00;76771.09;5029831;28;20441;-80
2021/09/17 05:11:39;;;;;;;;;;;;;;;-142.75;100.00;76763.22;5026563;28;19928;-79
2021/09/17 05:14:04;;;;;;;;;;;;;;;-142.75;100.00;76763.22;5022882;28;19913;-79
2021/09/17 05:16:32;;;;;;;;;;;;;;;-142.75;100.00;76778.97;5031334;28;19913;-79
2021/09/17 05:18:57;;;;;;;;;;;;;;;-142.75;100.00;76771.09;5002631;28;19921;-79
2021/09/17 05:21:22;;;;;;;;;;;;;;;-142.75;100.00;76778.97;4993454;28;19936;-78
2021/09/17 05:23:47;;;;;;;;;;;;;;;-142.75;100.00;76786.84;4992030;28;19918;-77
2021/09/17 05:26:13;;;;;;;;;;;;;;;-142.75;100.00;76786.84;4993397;28;19964;-78
2021/09/17 05:28:38;;;;;;;;;;;;;;;-142.75;100.00;76786.84;5006373;28;19913;-79
2021/09/17 05:31:03;;;;;;;;;;;;;;;-142.75;100.00;76782.91;5011893;28;19914;-79
2021/09/17 05:33:28;;;;;;;;;;;;;;;-142.75;100.00;76778.97;5007686;28;20006;-81
2021/09/17 05:35:53;;;;;;;;;;;;;;;-142.75;100.00;76782.91;4991374;28;19914;-79
2021/09/17 05:38:19;;;;;;;;;;;;;;;-142.75;100.00;76786.84;4990515;28;20024;-79
2021/09/17 05:40:44;;;;;;;;;;;;;;;-142.75;100.00;76786.84;4991416;28;19914;-79
2021/09/17 05:43:10;;;;;;;;;;;;;;;-142.75;100.00;76794.69;4991659;28;20302;-81
2021/09/17 05:45:35;;;;;;;;;;;;;;;-142.75;100.00;76794.69;4991690;28;19924;-78
2021/09/17 05:48:00;;;;;;;;;;;;;;;-142.75;100.00;76798.66;5000558;28;19923;-79
2021/09/17 05:50:25;;;;;;;;;;;;;;;-142.75;100.00;76794.69;4991485;28;20419;-80
2021/09/17 05:52:50;;;;;;;;;;;;;;;-142.75;100.00;76790.78;5002602;28;19913;-80
2021/09/17 05:55:16;;;;;;;;;;;;;;;-142.75;100.00;76790.78;4999711;28;19913;-80
2021/09/17 05:57:41;;;;;;;;;;;;;;;-142.75;100.00;76782.91;5003872;28;19913;-79
2021/09/17 06:00:07;;;;;;;;;;;;;;;-142.75;100.00;76769.13;5003231;28;19919;-79
2021/09/17 06:02:33;;;;;;;;;;;;;;;-142.75;100.00;76773.06;5009292;28;20295;-79
2021/09/17 06:04:58;;;;;;;;;;;;;;;-142.75;100.00;76767.16;5000007;28;19913;-80
2021/09/17 06:07:23;;;;;;;;;;;;;;;-142.75;100.00;76767.16;5001817;28;19913;-79
2021/09/17 06:09:48;;;;;;;;;;;;;;;-142.75;100.00;76769.13;5004855;28;19952;-80
2021/09/17 06:12:13;;;;;;;;;;;;;;;-142.75;100.00;76763.22;5006613;28;19918;-80
2021/09/17 06:14:38;;;;;;;;;;;;;;;-142.75;100.00;76767.16;5004663;28;19927;-80
2021/09/17 06:17:04;;;;;;;;;;;;;;;-142.75;100.00;76763.22;5012277;28;19920;-77
2021/09/17 06:19:29;;;;;;;;;;;;;;;-142.75;100.00;76759.28;5008128;28;20298;-78
2021/09/17 06:21:54;;;;;;;;;;;;;;;-142.75;100.00;76751.41;4990157;28;20398;-78
2021/09/17 06:24:20;;;;;;;;;;;;;;;-142.75;100.00;76751.41;5000430;28;19918;-79
2021/09/17 06:26:45;;;;;;;;;;;;;;;-142.75;100.00;76735.66;5003178;28;19920;-79
2021/09/17 06:29:11;;;;;;;;;;;;;;;-142.75;100.00;76743.53;4995884;28;19921;-80
2021/09/17 06:31:36;;;;;;;;;;;;;;;-142.75;100.00;76733.69;5011418;28;19917;-77
2021/09/17 06:34:04;;;;;;;;;;;;;;;-142.75;100.00;76725.81;5001601;28;19913;-79
2021/09/17 06:36:30;;;;;;;;;;;;;;;-142.75;100.00;76706.13;4997984;28;19929;-80
2021/09/17 06:38:55;;;;;;;;;;;;;;;-142.75;100.00;76694.31;5006408;28;20568;-79
2021/09/17 06:41:20;;;;;;;;;;;;;;;-142.75;100.00;76682.50;4992270;28;19913;-77
2021/09/17 06:43:46;;;;;;;;;;;;;;;-142.75;100.00;76660.84;4991719;28;19914;-79
2021/09/17 06:46:11;;;;;;;;;;;;;;;-142.75;100.00;76641.16;4998628;28;19936;-80
2021/09/17 06:48:36;;;;;;;;;;;;;;;-142.75;100.00;76615.56;5009079;28;20022;-78
2021/09/17 06:51:01;;;;;;;;;;;;;;;-142.75;100.00;76633.28;4989944;28;19914;-79
2021/09/17 06:53:27;;;;;;;;;;;;;;;-142.75;99.70;76609.66;4994325;28;20016;-80
2021/09/17 06:55:52;;;;;;;;;;;;;;;-142.75;98.23;76609.66;5006445;28;19917;-78
2021/09/17 06:58:17;;;;;;;;;;;;;;;-142.75;98.20;76601.78;4998119;28;20375;-79
2021/09/17 07:00:42;;;;;;;;;;;;;;;-142.75;98.76;76597.84;4992389;28;19913;-79
2021/09/17 07:03:08;;;;;;;;;;;;;;;-142.75;98.80;76611.63;4990659;28;19917;-80
2021/09/17 07:05:33;;;;;;;;;;;;;;;-142.75;97.89;76605.72;4990628;28;19960;-78
2021/09/17 07:08:02;;;;;;;;;;;;;;;-142.75;97.89;76621.47;4994766;28;19920;-79
2021/09/17 07:10:28;;;;;;;;;;;;;;;-142.75;98.88;76609.66;5007416;28;19960;-80
2021/09/17 07:12:53;;;;;;;;;;;;;;;-142.75;98.75;76605.72;4991892;28;19914;-78
2021/09/17 07:15:18;;;;;;;;;;;;;;;-142.75;98.37;76593.91;4992784;28;19926;-80
2021/09/17 07:17:44;;;;;;;;;;;;;;;-142.75;98.01;76593.91;4996128;28;19917;-79
2021/09/17 07:20:09;;;;;;;;;;;;;;;-142.75;99.02;76599.81;5010786;28;19913;-79
2021/09/17 07:22:35;;;;;;;;;;;;;;;-142.75;98.60;76595.88;4994903;28;19917;-79
2021/09/17 07:25:02;;;;;;;;;;;;;;;-142.75;99.27;76580.13;5005996;28;19924;-79
2021/09/17 07:27:27;;;;;;;;;;;;;;;-142.75;99.56;76566.34;4992212;28;19920;-80
2021/09/17 07:29:52;;;;;;;;;;;;;;;-142.75;99.42;76554.53;4997548;28;19913;-79
2021/09/17 07:32:17;;;;;;;;;;;;;;;-142.75;99.04;76562.41;4997939;28;19918;-81
2021/09/17 07:34:43;;;;;;;;;;;;;;;-142.75;98.87;76550.59;5009890;28;19923;-79
2021/09/17 07:37:08;;;;;;;;;;;;;;;-142.75;99.02;76534.84;5013244;28;19961;-78
2021/09/17 07:39:33;;;;;;;;;;;;;;;-142.75;99.53;76527.00;5005863;28;19917;-77
2021/09/17 07:41:58;;;;;;;;;;;;;;;-142.75;99.02;76515.19;4992536;28;19928;-79
2021/09/17 07:44:24;;;;;;;;;;;;;;;-142.75;97.23;76487.63;4993846;28;19961;-78
2021/09/17 07:46:49;;;;;;;;;;;;;;;-142.75;96.77;76442.34;4992711;28;19918;-78
2021/09/17 07:49:14;;;;;;;;;;;;;;;-142.75;96.05;76340.00;4995990;28;19919;-77
2021/09/17 07:51:39;;;;;;;;;;;;;;;-142.75;92.44;76251.41;5012705;28;19921;-78
2021/09/17 07:54:04;;;;;;;;;;;;;;;-142.75;85.08;76127.41;5013963;28;19913;-79
2021/09/17 07:56:30;;;;;;;;;;;;;;;-142.75;80.32;75966.00;5012891;28;19971;-78
2021/09/17 07:58:55;;;;;;;;;;;;;;;-142.75;73.28;75897.13;5013294;28;19917;-78
2021/09/17 08:01:20;;;;;;;;;;;;;;;-142.75;67.24;75845.97;4996436;28;19918;-78
2021/09/17 08:03:45;;;;;;;;;;;;;;;-142.75;66.79;75731.81;4993259;28;19919;-81
2021/09/17 08:06:12;;;;;;;;;;;;;;;-142.75;63.95;75657.03;4997723;28;19965;-79
2021/09/17 08:08:38;;;;;;;;;;;;;;;-142.75;61.58;75548.78;5002724;28;19917;-79
2021/09/17 08:11:03;;;;;;;;;;;;;;;-142.75;57.98;75491.72;5011174;28;19944;-81
2021/09/17 08:13:28;;;;;;;;;;;;;;;-142.75;56.02;75470.06;5012056;28;20343;-79
2021/09/17 08:15:54;;;;;;;;;;;;;;;-142.75;56.29;75456.28;4999959;28;19921;-82
2021/09/17 08:18:19;;;;;;;;;;;;;;;-142.75;55.10;75448.41;5005677;28;19913;-78
2021/09/17 08:20:50;;;;;;;;;;;;;;;-142.75;53.03;75361.84;4999957;28;19914;-79
2021/09/17 08:23:18;;;;;;;;;;;;;;;-142.75;52.36;75359.88;4996829;28;19918;-81
2021/09/17 08:25:43;;;;;;;;;;;;;;;-142.75;51.46;75314.59;5006849;28;19913;-80
2021/09/17 08:28:09;;;;;;;;;;;;;;;-142.75;50.96;75324.44;5013418;28;19940;-78
2021/09/17 08:30:34;;;;;;;;;;;;;;;-142.75;51.04;75279.19;4997247;28;19968;-80
2021/09/17 08:32:59;;;;;;;;;;;;;;;-142.75;49.45;75206.38;4994765;28;19921;-81
2021/09/17 08:35:24;;;;;;;;;;;;;;;-142.75;47.49;75220.16;4997722;28;19914;-80
2021/09/17 08:37:50;;;;;;;;;;;;;;;-142.75;49.29;75257.53;5014485;28;19921;-80
2021/09/17 08:40:15;;;;;;;;;;;;;;;-142.75;47.83;75233.91;5004902;28;20001;-79
2021/09/17 08:42:41;;;;;;;;;;;;;;;-142.75;48.11;75229.97;4992478;28;19926;-79
2021/09/17 08:45:06;;;;;;;;;;;;;;;-142.75;48.03;75200.47;4994229;28;20315;-79
2021/09/17 08:47:32;;;;;;;;;;;;;;;-142.75;45.83;75098.16;4992947;28;19914;-79
2021/09/17 08:49:57;;;;;;;;;;;;;;;-142.75;44.46;75043.03;4998067;28;20000;-81
2021/09/17 08:52:22;;;;;;;;;;;;;;;-142.75;42.69;74995.81;4994070;28;19933;-79
2021/09/17 08:54:48;;;;;;;;;;;;;;;-142.75;43.07;75013.53;4992281;28;20044;-81
2021/09/17 08:57:13;;;;;;;;;;;;;;;-142.75;43.15;74984.00;5006323;28;19914;-82
2021/09/17 08:59:38;;;;;;;;;;;;;;;-142.75;42.48;74948.59;4996578;28;19914;-78
2021/09/17 09:02:19;;;;;;;;;;;;;;;-142.75;41.70;74936.78;5001451;28;20383;-79
2021/09/17 09:04:53;;;;;;;;;;;;;;;-142.75;43.64;75045.00;5009723;28;20000;-79
2021/09/17 09:07:25;;;;;;;;;;;;;;;-142.75;43.19;75027.31;4993639;28;20012;-77
2021/09/17 09:09:50;;;;;;;;;;;;;;;-142.75;42.23;75086.34;5002977;28;19971;-80
2021/09/17 09:12:17;;;;;;;;;;;;;;;-142.75;41.81;74964.34;4999602;28;19918;-79
2021/09/17 09:14:42;;;;;;;;;;;;;;;-142.75;42.76;75015.50;5008629;28;19913;-79
2021/09/17 09:17:08;;;;;;;;;;;;;;;-142.75;42.25;74950.56;5005948;28;20000;-79
2021/09/17 09:19:35;;;;;;;;;;;;;;;-142.75;40.89;74830.53;4993064;28;20015;-79
2021/09/17 09:22:03;;;;;;;;;;;;;;;-142.75;39.71;74769.53;5008243;28;19924;-78
2021/09/17 09:24:29;;;;;;;;;;;;;;;-142.75;38.05;74749.88;5007011;28;19936;-79
2021/09/17 09:27:14;;;;;;;;;;;;;;;-142.75;38.52;74771.50;5001178;28;20447;-80
2021/09/17 09:29:40;;;;;;;;;;;;;;;-142.75;38.34;74724.28;5011770;28;19996;-80
2021/09/17 09:32:06;;;;;;;;;;;;;;;-142.75;38.06;74682.97;5011643;28;19920;-78
2021/09/17 09:34:50;;;;;;;;;;;;;;;-142.75;36.99;74675.09;5010409;28;19913;-79
2021/09/17 09:37:23;;;;;;;;;;;;;;;-142.75;36.54;74635.75;4993506;28;20291;-79
2021/09/17 09:39:50;;;;;;;;;;;;;;;-142.75;36.32;74629.84;4993321;28;19961;-79
2021/09/17 09:42:17;;;;;;;;;;;;;;;-142.75;36.63;74568.84;4992993;28;20394;-78
2021/09/17 09:45:02;;;;;;;;;;;;;;;-142.75;35.20;74574.75;4994339;28;19996;-82
2021/09/17 09:47:31;;;;;;;;;;;;;;;-142.75;36.05;74673.13;5009806;28;19945;-79
2021/09/17 09:50:10;;;;;;;;;;;;;;;-142.75;37.28;74801.03;5003797;28;19928;-80
2021/09/17 09:52:36;;;;;;;;;;;;;;;-142.75;38.37;74881.69;5007737;28;19940;-80
2021/09/17 09:55:02;;;;;;;;;;;;;;;-142.75;38.24;74826.59;5008452;28;19917;-81
2021/09/17 09:57:27;;;;;;;;;;;;;;;-142.75;37.59;74787.25;4998529;28;20379;-79
2021/09/17 09:59:53;;;;;;;;;;;;;;;-142.75;36.69;74738.06;4989641;28;19924;-78
2021/09/17 10:02:18;;;;;;;;;;;;;;;-142.75;36.24;74704.63;4989420;28;20643;-79
2021/09/17 10:04:44;;;;;;;;;;;;;;;-142.75;36.19;74631.81;5008381;28;20009;-79
2021/09/17 10:07:10;;;;;;;;;;;;;;;-142.75;35.62;74647.56;5011201;28;19924;-79
2021/09/17 10:09:37;;;;;;;;;;;;;;;-142.75;38.75;74968.28;4996738;28;19917;-81
2021/09/17 10:12:03;;;;;;;;;;;;;;;-142.75;40.13;75017.47;5006352;28;19924;-79
2021/09/17 10:14:30;;;;;;;;;;;;;;;-142.75;40.67;74891.53;4990388;28;19921;-81
2021/09/17 10:16:55;;;;;;;;;;;;;;;-142.75;40.99;75092.25;5003960;28;19939;-81
2021/09/17 10:19:21;;;;;;;;;;;;;;;-142.75;45.19;75322.47;4989961;28;20390;-80
2021/09/17 10:21:54;;;;;;;;;;;;;;;-142.75;42.78;75096.19;4988094;28;19944;-80
2021/09/17 10:24:25;;;;;;;;;;;;;;;-142.75;41.05;75031.25;4990736;28;19932;-81
2021/09/17 10:27:13;;;;;;;;;;;;;;;-142.75;40.45;74911.22;4998827;28;19917;-81
2021/09/17 10:29:43;;;;;;;;;;;;;;;-142.75;41.51;74940.72;5008809;28;19913;-78
2021/09/17 10:32:28;;;;;;;;;;;;;;;-142.75;38.36;74795.13;5012320;28;19928;-80
2021/09/17 10:35:05;;;;;;;;;;;;;;;-142.75;36.74;74720.34;5000632;28;20358;-79
2021/09/17 10:37:48;;;;;;;;;;;;;;;-142.75;36.03;74710.50;5000324;28;19920;-81
2021/09/17 10:40:14;;;;;;;;;;;;;;;-142.75;35.25;74602.31;5005375;28;20358;-81
2021/09/17 10:42:59;;;;;;;;;;;;;;;-142.75;35.16;74574.75;5001051;28;20008;-80
2021/09/17 10:45:24;;;;;;;;;;;;;;;-142.75;34.61;74608.19;5010051;28;19914;-79
2021/09/17 10:47:54;;;;;;;;;;;;;;;-142.75;33.90;74570.81;4995044;28;19976;-81
2021/09/17 10:50:19;;;;;;;;;;;;;;;-142.75;34.97;74602.31;4994179;28;19964;-81
2021/09/17 10:52:48;;;;;;;;;;;;;;;-142.75;34.11;74501.97;5009220;28;20335;-81
2021/09/17 10:55:39;;;;;;;;;;;;;;;-142.75;32.75;74444.91;4994958;28;19922;-79
2021/09/17 10:58:24;;;;;;;;;;;;;;;-142.75;34.29;74673.13;4992901;28;20004;-81
2021/09/17 11:01:06;;;;;;;;;;;;;;;-142.75;35.74;74643.63;4993936;28;20523;-82
2021/09/17 11:03:40;;;;;;;;;;;;;;;-142.75;34.91;74594.44;4992336;28;19929;-80
2021/09/17 11:08:47;;;;;;;;;;;;;;;-142.75;35.90;74724.28;4992850;28;20355;-80
2021/09/17 11:11:31;;;;;;;;;;;;;;;-142.75;34.17;74596.41;4999132;28;20368;-83
2021/09/17 11:13:57;;;;;;;;;;;;;;;-142.75;33.72;74555.09;5011093;28;20361;-82
2021/09/17 11:16:23;;;;;;;;;;;;;;;-142.75;33.52;74541.31;5000839;28;20008;-83
2021/09/17 11:18:52;;;;;;;;;;;;;;;-142.75;34.20;74568.84;5011990;28;19944;-81
2021/09/17 11:21:18;;;;;;;;;;;;;;;-142.75;34.64;74588.53;5010393;28;19971;-84
2021/09/17 11:23:48;;;;;;;;;;;;;;;-142.75;33.08;74498.03;5005311;28;19921;-81
2021/09/17 11:26:16;;;;;;;;;;;;;;;-142.75;32.96;74492.13;5006347;28;19917;-82
2021/09/17 11:28:41;;;;;;;;;;;;;;;-142.75;32.26;74555.09;4999042;28;19913;-82
2021/09/17 11:31:08;;;;;;;;;;;;;;;-142.75;33.33;74566.88;4994347;28;19921;-81
2021/09/17 11:33:33;;;;;;;;;;;;;;;-142.75;33.24;74539.34;5008125;28;20360;-82
2021/09/17 11:35:59;;;;;;;;;;;;;;;-142.75;33.13;74637.72;4998940;28;19968;-82
2021/09/17 11:38:24;;;;;;;;;;;;;;;-142.75;34.10;74742.00;5007680;28;19914;-82
2021/09/17 11:40:53;;;;;;;;;;;;;;;-142.75;35.44;74804.97;5007510;28;20387;-81
2021/09/17 11:43:18;;;;;;;;;;;;;;;-142.75;35.81;74903.34;5013217;28;19968;-81
2021/09/17 11:45:44;;;;;;;;;;;;;;;-142.75;37.76;75003.69;5014686;28;19913;-81
2021/09/17 11:48:16;;;;;;;;;;;;;;;-142.75;36.98;75003.69;4994983;28;20394;-83
2021/09/17 11:50:41;;;;;;;;;;;;;;;-142.75;37.70;75082.41;5006085;28;19917;-82
2021/09/17 11:53:06;;;;;;;;;;;;;;;-142.75;39.41;75121.75;5003953;28;20005;-81
2021/09/17 11:55:32;;;;;;;;;;;;;;;-142.75;39.74;75161.13;5007747;28;19923;-81
2021/09/17 11:57:58;;;;;;;;;;;;;;;-142.75;39.64;75200.47;5001949;28;19935;-81
2021/09/17 12:00:24;;;;;;;;;;;;;;;-142.75;41.19;75279.19;5010785;28;19913;-81
2021/09/17 12:02:52;;;;;;;;;;;;;;;-142.75;41.02;75346.09;4995821;28;20494;-83
2021/09/17 12:05:18;;;;;;;;;;;;;;;-142.75;41.57;75357.91;4994825;28;19981;-82
2021/09/17 12:07:44;;;;;;;;;;;;;;;-142.75;41.52;75350.03;4995382;28;19976;-81
2021/09/17 12:10:11;;;;;;;;;;;;;;;-142.75;41.81;75418.91;5008943;28;20371;-83
2021/09/17 12:12:38;;;;;;;;;;;;;;;-142.75;43.45;75462.19;5010677;28;19921;-81
2021/09/17 12:15:04;;;;;;;;;;;;;;;-142.75;43.71;75521.22;5006106;28;20329;-81
2021/09/17 12:17:29;;;;;;;;;;;;;;;-142.75;44.56;75568.47;5015745;28;19922;-80
2021/09/17 12:19:56;;;;;;;;;;;;;;;-142.75;45.62;75625.53;5009369;28;19914;-81